createdAt,value
2022-09-01T00:01:41.408Z,101617.69
2022-09-01T00:04:10.142Z,101702.06
2022-09-01T00:06:40.614Z,101698.75
2022-09-01T00:09:10.619Z,101697.91
2022-09-01T00:11:38.644Z,101698.19
2022-09-01T00:14:29.666Z,101682.06
2022-09-01T00:16:54.558Z,101695.91
2022-09-01T00:19:22.229Z,101695.91
2022-09-01T00:21:48.954Z,101635.69
2022-09-01T00:24:17.996Z,101632.94
2022-09-01T00:26:44.795Z,101606.03
2022-09-01T00:29:11.760Z,101690.25
2022-09-01T00:31:38.406Z,101697.72
2022-09-01T00:34:05.400Z,101697.06
2022-09-01T00:36:32.170Z,101583.28
2022-09-01T00:38:58.677Z,101648.31
2022-09-01T00:41:28.262Z,101708.69
2022-09-01T00:43:59.094Z,101700.09
2022-09-01T00:46:32.383Z,101705.53
2022-09-01T00:49:03.936Z,101706.75
2022-09-01T00:51:31.462Z,101700.75
2022-09-01T00:54:00.133Z,101697.47
2022-09-01T00:56:26.592Z,101678.75
2022-09-01T00:58:54.337Z,101675.88
2022-09-01T01:01:20.870Z,101698.03
2022-09-01T01:03:47.406Z,101691.81
2022-09-01T01:06:16.781Z,101660.44
2022-09-01T01:08:56.764Z,101613.38
2022-09-01T01:11:24.367Z,101593.69
2022-09-01T01:13:55.842Z,101678.25
2022-09-01T01:16:24.446Z,101508.84
2022-09-01T01:18:52.197Z,101692.25
2022-09-01T01:21:53.994Z,101678.06
2022-09-01T01:24:23.033Z,101501.50
2022-09-01T01:26:50.084Z,101600.16
2022-09-01T01:29:17.762Z,101624.00
2022-09-01T01:31:44.783Z,101677.41
2022-09-01T01:34:11.275Z,101655.31
2022-09-01T01:36:39.961Z,101692.41
2022-09-01T01:39:15.854Z,101663.25
2022-09-01T01:41:45.471Z,101682.09
2022-09-01T01:44:13.735Z,101678.84
2022-09-01T01:46:44.010Z,101684.25
2022-09-01T01:49:19.909Z,101638.25
2022-09-01T01:51:48.920Z,101671.09
2022-09-01T01:54:18.845Z,101687.47
2022-09-01T01:56:45.262Z,101629.47
2022-09-01T01:59:15.632Z,101692.41
2022-09-01T02:01:43.842Z,101689.75
2022-09-01T02:04:11.518Z,101689.94
2022-09-01T02:06:41.319Z,101474.91
2022-09-01T02:09:08.071Z,101621.81
2022-09-01T02:11:37.847Z,101613.19
2022-09-01T02:14:06.604Z,101661.13
2022-09-01T02:16:35.173Z,101683.41
2022-09-01T02:19:03.704Z,101529.97
2022-09-01T02:21:30.097Z,101607.63
2022-09-01T02:24:02.392Z,101687.47
2022-09-01T02:26:32.097Z,101677.41
2022-09-01T02:29:04.456Z,101676.03
2022-09-01T02:31:39.036Z,101668.19
2022-09-01T02:34:10.561Z,101552.50
2022-09-01T02:36:47.436Z,101584.22
2022-09-01T02:39:16.342Z,101679.69
2022-09-01T02:41:42.821Z,101576.38
2022-09-01T02:44:11.746Z,101661.53
2022-09-01T02:46:46.196Z,101674.91
2022-09-01T02:49:19.769Z,101674.00
2022-09-01T02:51:49.742Z,101580.81
2022-09-01T02:54:19.373Z,101633.72
2022-09-01T02:56:48.216Z,101668.03
2022-09-01T02:59:21.625Z,101656.16
2022-09-01T03:01:49.925Z,101674.66
2022-09-01T03:04:18.098Z,101673.97
2022-09-01T03:06:44.748Z,101667.31
2022-09-01T03:09:15.677Z,101668.31
2022-09-01T03:11:45.766Z,101545.78
2022-09-01T03:14:12.371Z,101646.88
2022-09-01T03:16:39.231Z,101668.94
2022-09-01T03:19:08.920Z,101603.22
2022-09-01T03:21:37.200Z,101669.72
2022-09-01T03:24:04.081Z,101653.88
2022-09-01T03:26:31.488Z,101676.09
2022-09-01T03:28:58.235Z,101666.03
2022-09-01T03:31:27.578Z,101577.56
2022-09-01T03:33:58.182Z,101667.66
2022-09-01T03:36:25.578Z,101651.63
2022-09-01T03:38:52.529Z,101640.38
2022-09-01T03:41:25.557Z,101659.59
2022-09-01T03:43:55.011Z,101659.47
2022-09-01T03:46:22.336Z,101633.97
2022-09-01T03:48:54.961Z,101624.59
2022-09-01T03:51:23.525Z,101651.28
2022-09-01T03:53:54.749Z,101655.97
2022-09-01T03:56:25.533Z,101566.75
2022-09-01T03:58:52.878Z,101653.75
2022-09-01T04:01:19.514Z,101563.56
2022-09-01T04:03:47.522Z,101558.06
2022-09-01T04:06:13.909Z,101657.19
2022-09-01T04:08:40.651Z,101571.97
2022-09-01T04:11:19.067Z,101653.16
2022-09-01T04:13:47.234Z,101565.16
2022-09-01T04:16:47.925Z,101576.38
2022-09-01T04:19:20.311Z,101642.31
2022-09-01T04:21:47.804Z,101653.34
2022-09-01T04:24:15.376Z,101475.31
2022-09-01T04:26:42.685Z,101667.00
2022-09-01T04:29:12.677Z,101573.13
2022-09-01T04:31:40.132Z,101654.34
2022-09-01T04:34:11.597Z,101657.31
2022-09-01T04:36:41.422Z,101596.84
2022-09-01T04:39:09.438Z,101658.78
2022-09-01T04:41:43.034Z,101552.59
2022-09-01T04:44:09.675Z,101657.69
2022-09-01T04:46:42.138Z,101633.16
2022-09-01T04:49:13.303Z,101659.72
2022-09-01T04:51:51.191Z,101651.94
2022-09-01T04:54:20.885Z,101661.41
2022-09-01T04:56:50.757Z,101534.16
2022-09-01T04:59:20.630Z,101610.78
2022-09-01T05:01:50.195Z,101611.97
2022-09-01T05:04:24.356Z,101659.69
2022-09-01T05:06:55.877Z,101660.19
2022-09-01T05:09:22.632Z,101504.06
2022-09-01T05:11:50.065Z,101661.13
2022-09-01T05:14:20.507Z,101604.63
2022-09-01T05:16:47.489Z,101652.72
2022-09-01T05:19:20.970Z,101660.31
2022-09-01T05:21:47.996Z,101663.31
2022-09-01T05:24:17.613Z,101655.00
2022-09-01T05:26:46.853Z,101557.19
2022-09-01T05:29:17.635Z,101651.22
2022-09-01T05:31:49.524Z,101649.84
2022-09-01T05:34:21.874Z,101635.59
2022-09-01T05:36:50.430Z,101629.97
2022-09-01T05:39:17.277Z,101664.97
2022-09-01T05:41:44.117Z,101654.03
2022-09-01T05:44:11.151Z,101652.84
2022-09-01T05:46:39.368Z,101648.91
2022-09-01T05:49:08.082Z,101643.22
2022-09-01T05:51:46.285Z,101559.91
2022-09-01T05:54:22.992Z,101653.09
2022-09-01T05:56:49.807Z,101552.53
2022-09-01T05:59:25.230Z,101650.34
2022-09-01T06:01:53.177Z,101654.59
2022-09-01T06:04:20.058Z,101566.75
2022-09-01T06:07:05.728Z,101646.50
2022-09-01T06:09:38.513Z,101648.78
2022-09-01T06:12:05.639Z,101603.41
2022-09-01T06:14:32.193Z,101461.00
2022-09-01T06:16:58.885Z,101555.31
2022-09-01T06:19:25.222Z,101637.00
2022-09-01T06:21:51.993Z,101508.25
2022-09-01T06:24:18.597Z,101605.97
2022-09-01T06:26:46.194Z,101589.69
2022-09-01T06:29:15.288Z,101581.91
2022-09-01T06:31:43.222Z,101634.38
2022-09-01T06:34:18.135Z,101562.38
2022-09-01T06:36:47.766Z,101630.88
2022-09-01T06:39:19.641Z,101620.66
2022-09-01T06:41:49.408Z,101560.50
2022-09-01T06:44:15.978Z,101541.50
2022-09-01T06:46:42.403Z,101569.91
2022-09-01T06:49:11.636Z,101623.94
2022-09-01T06:51:38.216Z,101637.06
2022-09-01T06:54:09.449Z,101486.97
2022-09-01T06:59:34.565Z,101589.09
2022-09-01T07:04:50.034Z,101639.53
2022-09-01T07:10:18.261Z,101525.94
2022-09-01T07:13:05.449Z,101568.09
2022-09-01T07:16:32.000Z,101593.00
2022-09-01T07:18:25.054Z,101623.00
2022-09-01T07:21:36.654Z,101645.72
2022-09-01T07:29:12.919Z,101601.44
2022-09-01T07:31:50.276Z,101526.16
2022-09-01T07:39:51.156Z,101556.28
2022-09-01T07:39:57.367Z,101642.41
2022-09-01T07:42:30.923Z,101639.28
2022-09-01T07:45:26.720Z,101501.56
2022-09-01T07:47:54.620Z,101604.38
2022-09-01T07:50:38.805Z,101559.94
2022-09-01T07:53:08.415Z,101616.25
2022-09-01T07:55:34.815Z,101611.44
2022-09-01T07:58:01.213Z,101471.75
2022-09-01T08:00:31.096Z,101615.03
2022-09-01T08:02:58.490Z,101608.34
2022-09-01T08:05:26.942Z,101519.69
2022-09-01T08:07:54.168Z,101533.88
2022-09-01T08:10:21.054Z,101627.25
2022-09-01T08:12:56.273Z,101624.06
2022-09-01T08:15:40.987Z,101525.50
2022-09-01T08:18:13.876Z,101484.41
2022-09-01T08:20:45.504Z,101613.25
2022-09-01T08:23:15.153Z,101572.84
2022-09-01T08:25:44.770Z,101613.66
2022-09-01T08:28:12.652Z,101530.84
2022-09-01T08:30:42.318Z,101605.25
2022-09-01T08:33:18.684Z,101592.59
2022-09-01T08:35:47.838Z,101642.00
2022-09-01T08:38:14.302Z,101613.94
2022-09-01T08:40:43.218Z,101562.59
2022-09-01T08:43:15.828Z,101612.00
2022-09-01T08:45:55.278Z,101609.06
2022-09-01T08:51:51.761Z,101571.22
2022-09-01T08:54:52.382Z,101610.41
2022-09-01T08:57:45.729Z,101567.38
2022-09-01T09:00:16.532Z,101605.31
2022-09-01T09:03:02.046Z,101618.31
2022-09-01T09:05:40.729Z,101621.22
2022-09-01T09:08:19.025Z,101605.16
2022-09-01T09:10:49.625Z,101445.81
2022-09-01T09:13:34.347Z,101610.72
2022-09-01T09:16:10.879Z,101616.03
2022-09-01T09:18:54.624Z,101611.75
2022-09-01T09:21:29.980Z,101596.22
2022-09-01T09:24:25.957Z,101337.63
2022-09-01T09:26:58.709Z,101505.16
2022-09-01T09:29:27.199Z,101580.97
2022-09-01T09:32:22.659Z,101595.66
2022-09-01T09:34:50.190Z,101476.28
2022-09-01T09:37:27.859Z,101604.53
2022-09-01T09:40:20.109Z,101592.53
2022-09-01T09:42:55.450Z,101596.34
2022-09-01T09:45:24.161Z,101583.63
2022-09-01T09:47:51.011Z,101547.91
2022-09-01T09:50:29.516Z,101465.88
2022-09-01T09:53:35.714Z,101568.72
2022-09-01T09:56:24.846Z,101572.34
2022-09-01T09:58:53.141Z,101575.75
2022-09-01T10:01:22.362Z,101565.97
2022-09-01T10:03:53.385Z,101563.81
2022-09-01T10:06:33.201Z,101507.00
2022-09-01T10:09:01.968Z,101513.22
2022-09-01T10:11:35.506Z,101468.41
2022-09-01T10:14:06.205Z,101557.06
2022-09-01T10:16:37.433Z,101571.53
2022-09-01T10:19:09.250Z,101559.81
2022-09-01T10:21:41.551Z,101553.75
2022-09-01T10:24:33.382Z,101568.34
2022-09-01T10:27:09.682Z,101558.38
2022-09-01T10:29:51.155Z,101555.97
2022-09-01T10:32:50.840Z,101551.38
2022-09-01T10:35:34.455Z,101536.22
2022-09-01T10:38:06.885Z,101552.72
2022-09-01T10:40:43.376Z,101574.13
2022-09-01T10:43:44.996Z,101516.88
2022-09-01T10:46:38.655Z,101550.34
2022-09-01T10:49:25.239Z,101532.13
2022-09-01T10:51:56.863Z,101536.94
2022-09-01T10:54:39.312Z,101553.88
2022-09-01T10:57:26.952Z,101469.25
2022-09-01T10:59:57.800Z,101487.34
2022-09-01T11:02:29.539Z,101545.31
2022-09-01T11:05:01.273Z,101549.94
2022-09-01T11:07:57.694Z,101448.28
2022-09-01T11:10:35.650Z,101554.19
2022-09-01T11:13:25.455Z,101526.13
2022-09-01T11:15:53.597Z,101524.91
2022-09-01T11:18:29.498Z,101536.28
2022-09-01T11:21:14.986Z,101548.56
2022-09-01T11:23:41.470Z,101487.97
2022-09-01T11:26:37.338Z,101542.47
2022-09-01T11:29:04.432Z,101486.28
2022-09-01T11:31:39.866Z,101548.56
2022-09-01T11:34:11.205Z,101452.69
2022-09-01T11:37:00.171Z,101547.19
2022-09-01T11:39:39.383Z,101515.47
2022-09-01T11:42:17.040Z,101546.72
2022-09-01T11:44:51.222Z,101507.81
2022-09-01T11:47:26.567Z,101466.53
2022-09-01T11:49:58.216Z,101500.63
2022-09-01T11:52:30.570Z,101534.69
2022-09-01T11:54:58.699Z,101528.38
2022-09-01T11:57:38.058Z,101540.50
2022-09-01T12:00:12.567Z,101524.31
2022-09-01T12:02:46.869Z,101519.41
2022-09-01T12:05:42.781Z,101419.38
2022-09-01T12:08:18.368Z,101512.88
2022-09-01T12:10:50.620Z,101527.44
2022-09-01T12:13:24.541Z,101547.88
2022-09-01T12:16:17.540Z,101528.44
2022-09-01T12:18:48.086Z,101508.69
2022-09-01T12:21:20.597Z,101424.09
2022-09-01T12:23:47.121Z,101525.63
2022-09-01T12:26:19.114Z,101509.81
2022-09-01T12:28:49.577Z,101445.50
2022-09-01T12:31:19.912Z,101509.56
2022-09-01T12:33:48.094Z,101428.03
2022-09-01T12:36:14.483Z,101525.22
2022-09-01T12:38:40.837Z,101408.19
2022-09-01T12:41:38.919Z,101476.00
2022-09-01T12:44:29.944Z,101510.56
2022-09-01T12:46:59.039Z,101490.31
2022-09-01T12:49:35.309Z,101293.13
2022-09-01T12:52:20.430Z,101506.03
2022-09-01T12:54:50.050Z,101438.19
2022-09-01T12:57:39.958Z,101508.22
2022-09-01T13:00:11.915Z,101498.28
2022-09-01T13:02:44.587Z,101450.31
2022-09-01T13:05:51.060Z,101497.78
2022-09-01T13:08:20.942Z,101487.00
2022-09-01T13:10:56.317Z,101462.72
2022-09-01T13:13:24.565Z,101485.84
2022-09-01T13:15:54.145Z,101487.03
2022-09-01T13:18:22.842Z,101502.22
2022-09-01T13:20:50.394Z,101443.19
2022-09-01T13:23:17.611Z,101498.19
2022-09-01T13:25:46.704Z,101463.22
2022-09-01T13:28:17.315Z,101437.28
2022-09-01T13:30:46.989Z,101506.00
2022-09-01T13:33:21.247Z,101504.97
2022-09-01T13:35:49.959Z,101502.47
2022-09-01T13:38:16.917Z,101505.53
2022-09-01T13:40:46.061Z,101455.44
2022-09-01T13:43:15.359Z,101422.81
2022-09-01T13:45:42.666Z,101450.50
2022-09-01T13:48:16.067Z,101450.34
2022-09-01T13:53:30.348Z,101491.19
2022-09-01T13:58:24.343Z,101472.06
2022-09-01T14:00:51.041Z,101387.75
2022-09-01T14:03:22.534Z,101403.50
2022-09-01T14:05:49.780Z,101468.78
2022-09-01T14:08:19.619Z,101387.03
2022-09-01T14:10:50.730Z,101452.25
2022-09-01T14:13:19.232Z,101451.16
2022-09-01T14:15:46.850Z,101453.50
2022-09-01T14:18:14.968Z,101316.50
2022-09-01T14:20:44.713Z,101386.16
2022-09-01T14:23:13.177Z,101461.00
2022-09-01T14:25:48.820Z,101461.88
2022-09-01T14:28:16.589Z,101280.56
2022-09-01T14:30:47.054Z,101350.63
2022-09-01T14:33:13.652Z,101434.97
2022-09-01T14:35:42.818Z,101417.31
2022-09-01T14:38:10.073Z,101431.25
2022-09-01T14:40:38.523Z,101375.38
2022-09-01T14:43:09.647Z,101462.47
2022-09-01T14:45:39.393Z,101447.19
2022-09-01T14:48:06.024Z,101408.63
2022-09-01T14:50:33.957Z,101437.56
2022-09-01T14:53:02.056Z,101454.56
2022-09-01T14:55:30.190Z,101458.81
2022-09-01T14:57:57.844Z,101459.25
2022-09-01T15:00:27.623Z,101451.25
2022-09-01T15:02:55.170Z,101457.44
2022-09-01T15:05:22.810Z,101445.47
2022-09-01T15:07:49.729Z,101428.78
2022-09-01T15:10:24.612Z,101430.25
2022-09-01T15:12:56.438Z,101419.75
2022-09-01T15:15:23.619Z,101355.81
2022-09-01T15:17:50.049Z,101384.91
2022-09-01T15:20:35.565Z,101426.91
2022-09-01T15:23:02.032Z,101341.75
2022-09-01T15:25:28.501Z,101424.53
2022-09-01T15:27:54.976Z,101434.16
2022-09-01T15:30:21.642Z,101420.16
2022-09-01T15:32:51.422Z,101398.25
2022-09-01T15:35:19.324Z,101432.50
2022-09-01T15:37:50.256Z,101443.63
2022-09-01T15:40:18.209Z,101430.66
2022-09-01T15:42:45.250Z,101432.88
2022-09-01T15:45:18.272Z,101421.13
2022-09-01T15:47:46.033Z,101301.88
2022-09-01T15:50:21.010Z,101434.16
2022-09-01T15:53:01.334Z,101437.03
2022-09-01T15:55:43.595Z,101422.63
2022-09-01T15:58:12.785Z,101405.34
2022-09-01T16:00:40.179Z,101342.25
2022-09-01T16:03:08.229Z,101443.03
2022-09-01T16:05:38.310Z,101423.16
2022-09-01T16:08:09.412Z,101388.50
2022-09-01T16:10:39.847Z,101385.31
2022-09-01T16:13:07.216Z,101398.28
2022-09-01T16:15:35.247Z,101360.41
2022-09-01T16:18:22.325Z,101416.16
2022-09-01T16:21:14.897Z,101390.59
2022-09-01T16:23:48.717Z,101386.06
2022-09-01T16:26:17.917Z,101418.06
2022-09-01T16:28:50.655Z,101402.06
2022-09-01T16:31:23.848Z,101351.72
2022-09-01T16:33:57.058Z,101406.13
2022-09-01T16:36:26.530Z,101406.84
2022-09-01T16:39:06.996Z,101351.06
2022-09-01T16:41:52.610Z,101410.03
2022-09-01T16:44:28.483Z,101410.00
2022-09-01T16:47:06.882Z,101406.06
2022-09-01T16:49:43.386Z,101302.16
2022-09-01T16:52:22.177Z,101371.00
2022-09-01T16:54:59.837Z,101408.78
2022-09-01T16:58:03.799Z,101357.16
2022-09-01T17:00:41.509Z,101366.56
2022-09-01T17:03:34.245Z,101413.97
2022-09-01T17:06:23.105Z,101391.66
2022-09-01T17:08:52.509Z,101380.59
2022-09-01T17:11:39.432Z,101411.97
2022-09-01T17:14:09.750Z,101371.84
2022-09-01T17:16:43.757Z,101418.31
2022-09-01T17:19:17.485Z,101397.91
2022-09-01T17:21:52.812Z,101379.69
2022-09-01T17:24:25.867Z,101411.47
2022-09-01T17:26:55.514Z,101392.69
2022-09-01T17:29:43.064Z,101359.44
2022-09-01T17:32:20.068Z,101361.69
2022-09-01T17:34:51.651Z,101392.44
2022-09-01T17:37:55.869Z,101408.22
2022-09-01T17:40:43.909Z,101376.03
2022-09-01T17:43:31.978Z,101404.91
2022-09-01T17:46:19.740Z,101346.47
2022-09-01T17:48:58.502Z,101386.03
2022-09-01T17:51:52.319Z,101339.63
2022-09-01T17:54:30.888Z,101404.09
2022-09-01T17:57:18.616Z,101408.91
2022-09-01T17:59:53.370Z,101410.88
2022-09-01T18:02:19.659Z,101405.84
2022-09-01T18:05:03.703Z,101326.28
2022-09-01T18:07:54.342Z,101406.72
2022-09-01T18:10:34.014Z,101401.06
2022-09-01T18:13:06.437Z,101413.25
2022-09-01T18:15:49.060Z,101410.41
2022-09-01T18:18:40.534Z,101413.47
2022-09-01T18:21:12.046Z,101404.84
2022-09-01T18:23:42.269Z,101385.94
2022-09-01T18:26:17.534Z,101418.81
2022-09-01T18:28:43.958Z,101388.53
2022-09-01T18:31:22.892Z,101428.13
2022-09-01T18:34:13.139Z,101426.81
2022-09-01T18:36:52.235Z,101430.94
2022-09-01T18:39:34.096Z,101407.19
2022-09-01T18:42:12.402Z,101441.06
2022-09-01T18:45:05.403Z,101436.94
2022-09-01T18:47:42.042Z,101444.69
2022-09-01T18:50:08.588Z,101438.72
2022-09-01T18:52:43.006Z,101419.13
2022-09-01T18:55:39.074Z,101441.44
2022-09-01T18:58:12.164Z,101453.59
2022-09-01T19:00:45.598Z,101452.38
2022-09-01T19:03:50.974Z,101425.84
2022-09-01T19:06:26.679Z,101455.19
2022-09-01T19:08:59.126Z,101460.78
2022-09-01T19:11:39.921Z,101303.34
2022-09-01T19:14:17.485Z,101442.22
2022-09-01T19:17:08.644Z,101462.69
2022-09-01T19:19:40.767Z,101463.91
2022-09-01T19:22:09.092Z,101421.84
2022-09-01T19:24:46.124Z,101415.53
2022-09-01T19:27:21.752Z,101472.47
2022-09-01T19:29:57.786Z,101428.38
2022-09-01T19:32:28.635Z,101474.19
2022-09-01T19:35:05.016Z,101478.13
2022-09-01T19:37:31.929Z,101455.34
2022-09-01T19:39:58.568Z,101462.50
2022-09-01T19:42:40.535Z,101478.25
2022-09-01T19:45:21.615Z,101473.53
2022-09-01T19:48:04.135Z,101462.50
2022-09-01T19:50:38.009Z,101474.00
2022-09-01T19:53:20.583Z,101401.22
2022-09-01T19:55:56.314Z,101411.38
2022-09-01T19:58:56.030Z,101464.91
2022-09-01T20:01:57.961Z,101463.91
2022-09-01T20:05:07.707Z,101456.03
2022-09-01T20:07:45.898Z,101378.34
2022-09-01T20:10:56.189Z,101437.69
2022-09-01T20:13:45.877Z,101481.00
2022-09-01T20:16:27.576Z,101480.13
2022-09-01T20:19:07.993Z,101481.84
2022-09-01T20:21:39.870Z,101331.41
2022-09-01T20:24:14.864Z,101485.13
2022-09-01T20:27:02.960Z,101429.91
2022-09-01T20:29:40.909Z,101488.50
2022-09-01T20:32:10.090Z,101421.00
2022-09-01T20:34:45.565Z,101434.06
2022-09-01T20:37:20.965Z,101491.84
2022-09-01T20:40:01.000Z,101427.06
2022-09-01T20:42:50.673Z,101437.88
2022-09-01T20:45:26.986Z,101503.53
2022-09-01T20:48:03.931Z,101435.22
2022-09-01T20:50:43.364Z,101494.28
2022-09-01T20:53:25.420Z,101473.25
2022-09-01T20:56:09.117Z,101348.78
2022-09-01T21:01:40.321Z,101496.09
2022-09-01T21:04:30.123Z,101497.78
2022-09-01T21:07:19.226Z,101479.88
2022-09-01T21:09:57.378Z,101501.09
2022-09-01T21:12:33.409Z,101492.38
2022-09-01T21:15:15.163Z,101494.19
2022-09-01T21:18:03.075Z,101494.41
2022-09-01T21:20:53.738Z,101368.50
2022-09-01T21:23:20.746Z,101427.41
2022-09-01T21:25:48.382Z,101480.59
2022-09-01T21:28:19.983Z,101475.50
2022-09-01T21:30:50.669Z,101493.44
2022-09-01T21:33:17.135Z,101462.84
2022-09-01T21:35:43.532Z,101429.84
2022-09-01T21:38:09.888Z,101486.66
2022-09-01T21:40:36.345Z,101453.06
2022-09-01T21:43:06.594Z,101484.50
2022-09-01T21:45:35.644Z,101488.44
2022-09-01T21:48:02.799Z,101419.56
2022-09-01T21:50:29.421Z,101486.31
2022-09-01T21:52:55.873Z,101485.19
2022-09-01T21:55:24.019Z,101466.03
2022-09-01T21:57:51.770Z,101478.56
2022-09-01T22:00:24.760Z,101462.75
2022-09-01T22:02:52.970Z,101451.25
2022-09-01T22:05:19.623Z,101475.81
2022-09-01T22:07:47.437Z,101476.13
2022-09-01T22:10:17.379Z,101411.69
2022-09-01T22:12:46.483Z,101470.59
2022-09-01T22:15:15.800Z,101464.53
2022-09-01T22:17:42.374Z,101449.69
2022-09-01T22:20:11.354Z,101368.09
2022-09-01T22:22:37.840Z,101448.50
2022-09-01T22:25:11.139Z,101391.53
2022-09-01T22:27:37.740Z,101384.19
2022-09-01T22:30:06.485Z,101415.63
2022-09-01T22:32:36.103Z,101411.16
2022-09-01T22:35:04.460Z,101455.09
2022-09-01T22:37:30.939Z,101422.09
2022-09-01T22:39:57.328Z,101439.19
2022-09-01T22:42:23.803Z,101358.09
2022-09-01T22:44:50.276Z,101363.63
2022-09-01T22:47:17.015Z,101460.72
2022-09-01T22:49:43.465Z,101418.78
2022-09-01T22:52:09.905Z,101370.44
2022-09-01T22:54:36.284Z,101453.19
2022-09-01T22:57:02.861Z,101416.88
2022-09-01T22:59:29.204Z,101453.38
2022-09-01T23:01:55.661Z,101438.75
2022-09-01T23:04:22.161Z,101447.25
2022-09-01T23:06:51.526Z,101455.94
2022-09-01T23:09:19.430Z,101454.78
2022-09-01T23:11:45.979Z,101433.88
2022-09-01T23:14:12.770Z,101446.50
2022-09-01T23:16:39.323Z,101451.91
2022-09-01T23:19:06.277Z,101443.63
2022-09-01T23:21:35.775Z,101438.00
2022-09-01T23:24:03.025Z,101399.72
2022-09-01T23:26:31.160Z,101444.97
2022-09-01T23:28:58.518Z,101439.69
2022-09-01T23:31:28.886Z,101457.50
2022-09-01T23:33:55.428Z,101450.56
2022-09-01T23:36:24.174Z,101439.56
2022-09-01T23:38:51.171Z,101419.75
2022-09-01T23:41:24.775Z,101358.06
2022-09-01T23:43:52.006Z,101437.47
2022-09-01T23:46:24.834Z,101426.81
2022-09-01T23:48:51.518Z,101445.91
2022-09-01T23:51:18.877Z,101402.75
2022-09-01T23:53:45.993Z,101439.31
2022-09-01T23:56:16.403Z,101429.75
2022-09-01T23:58:43.645Z,101398.78
